This is the latest recevied weather packets stored in our database for station/object SP4LIN-15. If no packets are shown the sender has not sent any weather packets the latest 10 day(s).
| Time | Temp. | Humidity | Pressure | Rain* | Wind** | Luminosity | Snow |
|---|---|---|---|---|---|---|---|
| 1778230437 | 15° C | 57% | 1011.3 hPa | 0 mm | - | - | - |
| 1778229537 | 13.89° C | 57% | 1011.3 hPa | 0 mm | - | - | - |
| 1778228637 | 13.89° C | 56% | 1011.4 hPa | 0 mm | - | - | - |
| 1778227737 | 15.56° C | 50% | 1011.3 hPa | 0 mm | - | - | - |
| 1778226837 | 17.78° C | 51% | 1011.1 hPa | 0 mm | - | - | - |
| 1778225937 | 17.22° C | 51% | 1011.4 hPa | 0 mm | - | - | - |
| 1778225037 | 16.67° C | 54% | 1011.1 hPa | 0 mm | - | - | - |
| 1778224137 | 13.33° C | 59% | 1011.1 hPa | 0 mm | - | - | - |
| 1778223237 | 13.89° C | 56% | 1011 hPa | 0 mm | - | - | - |
| 1778222337 | 16.11° C | 57% | 1010.8 hPa | 0 mm | - | - | - |
| 1778221437 | 13.89° C | 64% | 1010.8 hPa | 0 mm | - | - | - |
| 1778220537 | 11.11° C | 71% | 1010.7 hPa | 0 mm | - | - | - |
| 1778219637 | 11.11° C | 73% | 1010.6 hPa | 0 mm | - | - | - |
| 1778218737 | 9.44° C | 77% | 1010.6 hPa | 0 mm | - | - | - |
| 1778217837 | 8.89° C | 79% | 1010.6 hPa | 0 mm | - | - | - |
| 1778216938 | 8.89° C | 81% | 1010.7 hPa | 0 mm | - | - | - |
| 1778216038 | 8.33° C | 83% | 1010.6 hPa | 0 mm | - | - | - |
| 1778215137 | 7.78° C | 83% | 1010.6 hPa | 0 mm | - | - | - |
| 1778214238 | 7.78° C | 85% | 1010.5 hPa | 0 mm | - | - | - |
| 1778213338 | 7.78° C | 86% | 1010.4 hPa | 0 mm | - | - | - |
| 1778212438 | 7.22° C | 86% | 1010.4 hPa | 0 mm | - | - | - |
| 1778211538 | 7.22° C | 86% | 1010.2 hPa | 0 mm | - | - | - |
| 1778210638 | 7.22° C | 86% | 1010.2 hPa | 0 mm | - | - | - |
| 1778209738 | 7.22° C | 87% | 1010.1 hPa | 0 mm | - | - | - |
| 1778208838 | 7.22° C | 87% | 1010.2 hPa | 0 mm | - | - | - |
* Rain latest hour (hover to see other rain measurements)
** Current wind speed in m/s (hover to see current wind gust speed)